Moby Baby — ICEM — position and weather

sailwx.info

Track history (hours):
 
Tides and Currents Weather Stations Pressure Air Temp Water Temp Dewpoint Dewpoint Depression Visibility Wind Speed Wind Dir Waves Ship Positions

Moby Baby

Last reported at 2014-Aug-27 19:25 UTC. Time now 2014-Aug-27 23:20 UTC.
Position N 42°49' E 010°20'.

Length 99 m; draft 4.5 m.

Type: Ship. MMSI: 247049900.

Date/timePositionNaut miles runAvg speedWind from/ knotsBaromVisibWave heightAir tempDewpointWater temp
2014-Aug-27 19:25N 42°49' E 010°20'12 9.4
2014-Aug-27 18:08N 42°56' E 010°33'712.7
2014-Aug-27 17:33N 42°53' E 010°24'1 0.4
2014-Aug-27 15:32N 42°53' E 010°25'5 5.2
2014-Aug-27 14:28N 42°54' E 010°33'5 2.8
2014-Aug-27 12:33N 42°53' E 010°25'1 0.3
2014-Aug-27 09:08N 42°53' E 010°27'6 2.9
2014-Aug-27 07:04N 42°49' E 010°21'1014.4
2014-Aug-27 06:23N 42°55' E 010°32'2 2.1
2014-Aug-27 05:33N 42°56' E 010°34'13 4.3
2014-Aug-27 02:33N 42°49' E 010°19'1 0.1
2014-Aug-26 19:26N 42°49' E 010°21'5 2.5
2014-Aug-26 17:34N 42°53' E 010°24'2 0.9
2014-Aug-26 15:28N 42°54' E 010°27'5 5.7
2014-Aug-26 14:33N 42°56' E 010°33'5 2.4
2014-Aug-26 12:33N 42°54' E 010°27'4 4.4
2014-Aug-26 11:32N 42°56' E 010°33'2 0.7
2014-Aug-26 09:24N 42°54' E 010°32'8 0.2
2014-Aug-24 19:17N 42°51' E 010°22'4 1.3
2014-Aug-24 16:32N 42°53' E 010°26'7 0.2
2014-Aug-22 23:23N 42°49' E 010°19'0 0.0
2014-Aug-22 22:28N 42°49' E 010°19'0 0.0
2014-Aug-22 20:32N 42°49' E 010°19'0 0.3
2014-Aug-22 19:32N 42°48' E 010°20'11 2.5
2014-Aug-22 15:13N 42°55' E 010°32'6 0.1
2014-Aug-20 17:33N 42°53' E 010°24'2 1.0
2014-Aug-20 15:28N 42°54' E 010°27'0 0.3
2014-Aug-20 14:06N 42°53' E 010°27'7 6.6
2014-Aug-20 13:04N 42°49' E 010°20'1114.2
2014-Aug-20 12:20N 42°55' E 010°32'11 2.2
2014-Aug-20 07:30N 42°48' E 010°20'1 0.1
2014-Aug-19 19:23N 42°49' E 010°21'0 0.0
2014-Aug-18 19:26N 42°49' E 010°21'10 2.4
2014-Aug-18 15:15N 42°55' E 010°32'  
Track history (hours):
 
Tides and Currents Weather Stations Pressure Air Temp Water Temp Dewpoint Dewpoint Depression Visibility Wind Speed Wind Dir Waves Ship Positions

Moby Baby

Last reported at 2014-Aug-27 19:25 UTC. Time now 2014-Aug-27 23:20 UTC.
Position N 42°49' E 010°20'.

Length 99 m; draft 4.5 m.

Type: Ship. MMSI: 247049900.

Date/timePositionNaut miles runAvg speedWind from/ knotsBaromVisibWave heightAir tempDewpointWater temp
2014-Aug-27 19:25N 42°49' E 010°20'12 9.4
2014-Aug-27 18:08N 42°56' E 010°33'712.7
2014-Aug-27 17:33N 42°53' E 010°24'1 0.4
2014-Aug-27 15:32N 42°53' E 010°25'5 5.2
2014-Aug-27 14:28N 42°54' E 010°33'5 2.8
2014-Aug-27 12:33N 42°53' E 010°25'1 0.3
2014-Aug-27 09:08N 42°53' E 010°27'6 2.9
2014-Aug-27 07:04N 42°49' E 010°21'1014.4
2014-Aug-27 06:23N 42°55' E 010°32'2 2.1
2014-Aug-27 05:33N 42°56' E 010°34'13 4.3
2014-Aug-27 02:33N 42°49' E 010°19'1 0.1
2014-Aug-26 19:26N 42°49' E 010°21'5 2.5
2014-Aug-26 17:34N 42°53' E 010°24'2 0.9
2014-Aug-26 15:28N 42°54' E 010°27'5 5.7
2014-Aug-26 14:33N 42°56' E 010°33'5 2.4
2014-Aug-26 12:33N 42°54' E 010°27'4 4.4
2014-Aug-26 11:32N 42°56' E 010°33'2 0.7
2014-Aug-26 09:24N 42°54' E 010°32'8 0.2
2014-Aug-24 19:17N 42°51' E 010°22'4 1.3
2014-Aug-24 16:32N 42°53' E 010°26'7 0.2
2014-Aug-22 23:23N 42°49' E 010°19'0 0.0
2014-Aug-22 22:28N 42°49' E 010°19'0 0.0
2014-Aug-22 20:32N 42°49' E 010°19'0 0.3
2014-Aug-22 19:32N 42°48' E 010°20'11 2.5
2014-Aug-22 15:13N 42°55' E 010°32'6 0.1
2014-Aug-20 17:33N 42°53' E 010°24'2 1.0
2014-Aug-20 15:28N 42°54' E 010°27'0 0.3
2014-Aug-20 14:06N 42°53' E 010°27'7 6.6
2014-Aug-20 13:04N 42°49' E 010°20'1114.2
2014-Aug-20 12:20N 42°55' E 010°32'11 2.2
2014-Aug-20 07:30N 42°48' E 010°20'1 0.1
2014-Aug-19 19:23N 42°49' E 010°21'0 0.0
2014-Aug-18 19:26N 42°49' E 010°21'10 2.4
2014-Aug-18 15:15N 42°55' E 010°32'  

Dump ship's entire track history